createdAt,value
2022-08-30T00:00:18.954Z,25.73
2022-08-30T00:03:07.828Z,25.55
2022-08-30T00:05:56.210Z,25.56
2022-08-30T00:08:44.881Z,25.61
2022-08-30T00:11:31.862Z,25.59
2022-08-30T00:14:20.458Z,25.34
2022-08-30T00:17:07.498Z,25.44
2022-08-30T00:19:56.067Z,25.50
2022-08-30T00:22:43.057Z,25.50
2022-08-30T00:25:30.126Z,25.53
2022-08-30T00:28:17.519Z,25.29
2022-08-30T00:31:05.643Z,25.35
2022-08-30T00:33:52.661Z,25.35
2022-08-30T00:36:39.695Z,25.39
2022-08-30T00:39:29.948Z,25.38
2022-08-30T00:42:18.593Z,25.33
2022-08-30T00:45:20.199Z,25.34
2022-08-30T00:48:07.849Z,25.40
2022-08-30T00:51:00.495Z,25.44
2022-08-30T00:53:50.878Z,25.10
2022-08-30T00:56:38.226Z,25.10
2022-08-30T00:59:26.388Z,25.35
2022-08-30T01:02:14.410Z,25.32
2022-08-30T01:05:04.527Z,25.34
2022-08-30T01:07:51.836Z,25.23
2022-08-30T01:10:39.221Z,25.36
2022-08-30T01:13:28.279Z,25.52
2022-08-30T01:16:15.765Z,25.24
2022-08-30T01:19:03.707Z,25.28
2022-08-30T01:21:57.450Z,25.16
2022-08-30T01:24:47.958Z,25.12
2022-08-30T01:27:38.569Z,25.00
2022-08-30T01:30:25.591Z,25.15
2022-08-30T01:33:13.156Z,25.01
2022-08-30T01:36:03.840Z,25.12
2022-08-30T01:38:56.983Z,25.28
2022-08-30T01:41:44.542Z,25.38
2022-08-30T01:44:31.572Z,25.46
2022-08-30T01:47:19.433Z,25.24
2022-08-30T01:50:08.226Z,25.19
2022-08-30T01:52:55.309Z,25.08
2022-08-30T01:55:42.839Z,24.96
2022-08-30T01:58:30.075Z,25.08
2022-08-30T02:01:19.896Z,25.18
2022-08-30T02:04:09.137Z,25.28
2022-08-30T02:06:56.186Z,25.33
2022-08-30T02:09:43.308Z,25.34
2022-08-30T02:12:33.229Z,25.26
2022-08-30T02:15:20.469Z,24.95
2022-08-30T02:18:07.384Z,25.05
2022-08-30T02:20:54.494Z,25.09
2022-08-30T02:23:42.405Z,25.28
2022-08-30T02:26:29.768Z,25.24
2022-08-30T02:29:17.028Z,25.09
2022-08-30T02:32:04.509Z,24.77
2022-08-30T02:34:51.755Z,24.72
2022-08-30T02:37:39.377Z,24.75
2022-08-30T02:40:26.387Z,24.81
2022-08-30T02:43:13.468Z,24.89
2022-08-30T02:46:00.449Z,24.93
2022-08-30T02:48:47.543Z,24.94
2022-08-30T02:51:35.241Z,24.96
2022-08-30T02:54:22.235Z,24.92
2022-08-30T02:57:19.878Z,25.06
2022-08-30T03:00:14.087Z,25.15
2022-08-30T03:03:03.739Z,25.07
2022-08-30T03:05:50.895Z,24.84
2022-08-30T03:08:38.176Z,24.94
2022-08-30T03:11:25.508Z,25.06
2022-08-30T03:14:12.550Z,25.07
2022-08-30T03:16:59.614Z,24.84
2022-08-30T03:19:46.740Z,24.93
2022-08-30T03:22:34.006Z,24.71
2022-08-30T03:25:21.859Z,24.79
2022-08-30T03:28:09.389Z,24.75
2022-08-30T03:30:56.746Z,24.98
2022-08-30T03:33:43.742Z,25.02
2022-08-30T03:36:30.898Z,25.01
2022-08-30T03:39:18.019Z,25.02
2022-08-30T03:42:05.230Z,25.02
2022-08-30T03:44:52.265Z,25.06
2022-08-30T03:47:39.505Z,25.13
2022-08-30T03:50:30.651Z,24.98
2022-08-30T03:53:17.719Z,24.92
2022-08-30T03:56:05.039Z,24.98
2022-08-30T03:58:52.052Z,24.89
2022-08-30T04:01:39.775Z,24.99
2022-08-30T04:04:27.109Z,25.02
2022-08-30T04:07:14.535Z,25.08
2022-08-30T04:10:01.496Z,25.20
2022-08-30T04:12:49.983Z,25.23
2022-08-30T04:15:36.981Z,25.08
2022-08-30T04:18:24.030Z,25.14
2022-08-30T04:21:13.940Z,25.19
2022-08-30T04:24:01.398Z,25.10
2022-08-30T04:26:48.363Z,25.08
2022-08-30T04:29:35.454Z,24.98
2022-08-30T04:32:22.551Z,24.84
2022-08-30T04:35:10.788Z,25.11
2022-08-30T04:37:57.697Z,25.11
2022-08-30T04:40:48.648Z,25.03
2022-08-30T04:43:35.605Z,25.09
2022-08-30T04:46:22.705Z,24.91
2022-08-30T04:49:09.671Z,24.78
2022-08-30T04:51:56.706Z,24.81
2022-08-30T04:54:43.642Z,24.86
2022-08-30T04:57:30.825Z,24.89
2022-08-30T05:00:20.577Z,24.89
2022-08-30T05:03:07.788Z,24.74
2022-08-30T05:05:54.771Z,24.81
2022-08-30T05:08:45.977Z,24.86
2022-08-30T05:11:33.595Z,24.74
2022-08-30T05:14:20.670Z,24.64
2022-08-30T05:17:07.585Z,24.62
2022-08-30T05:19:54.616Z,24.34
2022-08-30T05:22:53.486Z,24.21
2022-08-30T05:25:42.519Z,24.21
2022-08-30T05:28:29.417Z,24.26
2022-08-30T05:31:20.345Z,24.30
2022-08-30T05:34:07.267Z,24.29
2022-08-30T05:36:54.369Z,24.49
2022-08-30T05:39:50.761Z,24.51
2022-08-30T05:42:41.569Z,24.47
2022-08-30T05:45:28.594Z,24.47
2022-08-30T05:48:15.780Z,24.64
2022-08-30T05:51:17.111Z,24.58
2022-08-30T05:54:06.257Z,24.73
2022-08-30T05:56:53.166Z,24.84
2022-08-30T05:59:40.187Z,24.58
2022-08-30T06:02:27.217Z,24.66
2022-08-30T06:05:14.722Z,24.60
2022-08-30T06:08:01.666Z,24.79
2022-08-30T06:10:48.891Z,24.74
2022-08-30T06:13:35.841Z,24.73
2022-08-30T06:16:25.677Z,24.75
2022-08-30T06:19:14.957Z,24.97
2022-08-30T06:22:02.044Z,24.82
2022-08-30T06:24:57.797Z,24.74
2022-08-30T06:27:45.263Z,24.59
2022-08-30T06:30:33.720Z,24.66
2022-08-30T06:33:20.777Z,24.86
2022-08-30T06:36:11.188Z,24.98
2022-08-30T06:38:59.035Z,24.81
2022-08-30T06:41:45.960Z,24.95
2022-08-30T06:44:33.227Z,25.00
2022-08-30T06:47:20.492Z,25.11
2022-08-30T06:50:11.734Z,25.08
2022-08-30T06:53:05.653Z,25.06
2022-08-30T06:56:01.191Z,25.04
2022-08-30T06:58:48.183Z,25.28
2022-08-30T07:01:35.290Z,25.56
2022-08-30T07:04:22.304Z,25.44
2022-08-30T07:07:11.032Z,25.32
2022-08-30T07:09:57.950Z,25.67
2022-08-30T07:12:45.136Z,25.65
2022-08-30T07:15:38.111Z,25.81
2022-08-30T07:18:44.365Z,25.79
2022-08-30T07:21:37.416Z,25.63
2022-08-30T07:24:25.138Z,25.70
2022-08-30T07:27:12.621Z,25.97
2022-08-30T07:30:01.279Z,25.97
2022-08-30T07:32:48.365Z,25.94
2022-08-30T07:35:35.640Z,25.97
2022-08-30T07:38:22.565Z,25.90
2022-08-30T07:41:09.762Z,25.77
2022-08-30T07:43:57.503Z,25.92
2022-08-30T07:46:44.640Z,25.79
2022-08-30T07:49:31.585Z,25.66
2022-08-30T07:52:18.666Z,25.90
2022-08-30T07:55:06.452Z,25.65
2022-08-30T07:57:53.628Z,25.60
2022-08-30T08:00:40.910Z,25.74
2022-08-30T08:03:30.026Z,25.77
2022-08-30T08:06:18.579Z,25.86
2022-08-30T08:09:06.035Z,25.78
2022-08-30T08:11:53.033Z,25.70
2022-08-30T08:14:41.535Z,25.68
2022-08-30T08:17:28.580Z,25.74
2022-08-30T08:20:16.252Z,25.56
2022-08-30T08:23:03.997Z,25.27
2022-08-30T08:25:50.983Z,25.51
2022-08-30T08:28:38.019Z,25.52
2022-08-30T08:31:33.311Z,25.53
2022-08-30T08:34:23.453Z,25.72
2022-08-30T08:37:10.476Z,25.91
2022-08-30T08:39:57.782Z,26.06
2022-08-30T08:43:00.808Z,25.90
2022-08-30T08:46:24.810Z,25.53
2022-08-30T08:49:11.914Z,25.75
2022-08-30T08:52:17.733Z,25.72
2022-08-30T08:55:12.591Z,25.94
2022-08-30T08:57:59.615Z,25.36
2022-08-30T09:00:46.679Z,25.63
2022-08-30T09:03:33.661Z,25.70
2022-08-30T09:06:34.091Z,25.84
2022-08-30T09:09:27.785Z,25.97
2022-08-30T09:12:15.027Z,26.04
2022-08-30T09:15:19.072Z,26.18
2022-08-30T09:18:19.007Z,26.21
2022-08-30T09:21:08.295Z,26.36
2022-08-30T09:23:59.234Z,26.25
2022-08-30T09:26:46.191Z,26.04
2022-08-30T09:29:33.233Z,25.86
2022-08-30T09:32:26.473Z,25.93
2022-08-30T09:35:19.355Z,25.97
2022-08-30T09:38:09.336Z,25.77
2022-08-30T09:40:59.199Z,25.68
2022-08-30T09:44:08.121Z,25.64
2022-08-30T09:47:01.549Z,25.56
2022-08-30T09:49:49.206Z,25.77
2022-08-30T09:53:02.150Z,25.64
2022-08-30T09:55:52.292Z,25.54
2022-08-30T09:58:48.913Z,25.51
2022-08-30T10:01:47.832Z,25.27
2022-08-30T10:04:47.260Z,25.41
2022-08-30T10:07:53.591Z,25.34
2022-08-30T10:10:49.144Z,25.44
2022-08-30T10:13:51.543Z,25.47
2022-08-30T10:17:01.877Z,25.51
2022-08-30T10:20:03.307Z,25.50
2022-08-30T10:22:52.580Z,25.64
2022-08-30T10:25:44.114Z,25.65
2022-08-30T10:28:52.379Z,25.69
2022-08-30T10:32:28.452Z,25.63
2022-08-30T10:35:19.676Z,25.58
2022-08-30T10:38:15.126Z,25.45
2022-08-30T10:41:24.570Z,25.38
2022-08-30T10:44:20.151Z,25.52
2022-08-30T10:47:45.040Z,25.38
2022-08-30T10:50:42.607Z,25.58
2022-08-30T10:53:34.679Z,25.60
2022-08-30T10:56:26.338Z,25.66
2022-08-30T10:59:17.278Z,25.52
2022-08-30T11:02:14.460Z,25.54
2022-08-30T11:05:20.545Z,25.54
2022-08-30T11:08:24.240Z,25.66
2022-08-30T11:11:48.771Z,25.67
2022-08-30T11:14:40.404Z,25.83
2022-08-30T11:17:40.720Z,25.93
2022-08-30T11:20:36.484Z,25.74
2022-08-30T11:23:34.022Z,25.97
2022-08-30T11:26:45.900Z,25.94
2022-08-30T11:29:39.982Z,26.13
2022-08-30T11:33:00.764Z,26.19
2022-08-30T11:35:55.187Z,26.30
2022-08-30T11:38:42.279Z,26.43
2022-08-30T11:41:34.195Z,26.56
2022-08-30T11:44:22.273Z,26.70
2022-08-30T11:47:52.755Z,26.86
2022-08-30T11:50:54.352Z,26.88
2022-08-30T11:53:51.141Z,26.86
2022-08-30T11:56:56.861Z,26.73
2022-08-30T11:59:52.425Z,27.03
2022-08-30T12:02:45.177Z,27.29
2022-08-30T12:05:48.034Z,27.12
2022-08-30T12:08:35.227Z,27.10
2022-08-30T12:11:23.247Z,27.12
2022-08-30T12:14:52.185Z,27.24
2022-08-30T12:18:03.640Z,27.07
2022-08-30T12:20:51.254Z,27.20
2022-08-30T12:23:47.041Z,27.08
2022-08-30T12:26:39.530Z,27.29
2022-08-30T12:29:31.087Z,27.26
2022-08-30T12:32:20.605Z,27.48
2022-08-30T12:35:08.109Z,27.61
2022-08-30T12:38:00.159Z,27.69
2022-08-30T12:40:58.243Z,28.02
2022-08-30T12:43:52.018Z,27.79
2022-08-30T12:46:39.335Z,27.91
2022-08-30T12:49:30.149Z,27.92
2022-08-30T12:52:26.409Z,27.83
2022-08-30T12:55:20.393Z,27.79
2022-08-30T12:58:10.596Z,28.18
2022-08-30T13:01:31.206Z,28.14
2022-08-30T13:04:23.193Z,28.15
2022-08-30T13:07:10.815Z,28.15
2022-08-30T13:10:13.655Z,28.49
2022-08-30T13:13:06.375Z,28.53
2022-08-30T13:15:53.775Z,28.92
2022-08-30T13:18:40.896Z,28.85
2022-08-30T13:21:31.344Z,28.93
2022-08-30T13:24:21.326Z,28.93
2022-08-30T13:27:12.098Z,28.81
2022-08-30T13:30:13.292Z,29.07
2022-08-30T13:33:02.241Z,28.91
2022-08-30T13:35:49.329Z,28.57
2022-08-30T13:38:36.743Z,28.51
2022-08-30T13:41:24.591Z,28.44
2022-08-30T13:44:13.072Z,28.10
2022-08-30T13:50:08.563Z,28.23
2022-08-30T13:52:56.810Z,28.48
2022-08-30T13:55:44.508Z,28.41
2022-08-30T13:58:32.079Z,28.39
2022-08-30T14:01:19.808Z,28.53
2022-08-30T14:04:15.995Z,28.76
2022-08-30T14:07:20.260Z,28.83
2022-08-30T14:13:15.468Z,28.84
2022-08-30T14:19:15.961Z,29.00
2022-08-30T14:22:03.188Z,29.40
2022-08-30T14:24:50.264Z,29.52
2022-08-30T14:27:37.320Z,29.64
2022-08-30T14:30:25.201Z,29.74
2022-08-30T14:33:13.417Z,29.84
2022-08-30T14:36:00.446Z,29.57
2022-08-30T14:38:48.578Z,29.22
2022-08-30T14:41:43.487Z,29.12
2022-08-30T14:44:45.745Z,28.64
2022-08-30T14:47:38.270Z,28.54
2022-08-30T14:50:25.270Z,28.60
2022-08-30T14:53:15.013Z,28.59
2022-08-30T14:56:08.306Z,28.52
2022-08-30T14:59:00.586Z,28.39
2022-08-30T15:01:47.791Z,28.33
2022-08-30T15:04:34.907Z,28.14
2022-08-30T15:07:21.886Z,28.11
2022-08-30T15:10:10.509Z,27.99
2022-08-30T15:12:58.064Z,27.90
2022-08-30T15:15:45.117Z,26.85
2022-08-30T15:18:32.143Z,24.71
2022-08-30T15:21:28.074Z,24.25
2022-08-30T15:24:18.678Z,24.20
2022-08-30T15:27:06.121Z,23.85
2022-08-30T15:29:53.318Z,23.44
2022-08-30T15:32:40.411Z,23.29
2022-08-30T15:35:30.253Z,22.83
2022-08-30T15:38:19.366Z,22.74
2022-08-30T15:41:10.912Z,22.76
2022-08-30T15:43:59.752Z,22.62
2022-08-30T15:46:46.832Z,22.68
2022-08-30T15:49:34.123Z,22.73
2022-08-30T15:52:21.177Z,22.56
2022-08-30T15:55:09.423Z,22.57
2022-08-30T15:57:56.642Z,22.61
2022-08-30T16:00:45.126Z,22.72
2022-08-30T16:03:33.750Z,22.95
2022-08-30T16:06:25.067Z,22.94
2022-08-30T16:09:12.206Z,23.09
2022-08-30T16:11:59.307Z,23.28
2022-08-30T16:14:46.301Z,23.39
2022-08-30T16:17:33.330Z,23.41
2022-08-30T16:20:20.422Z,23.42
2022-08-30T16:23:08.285Z,23.56
2022-08-30T16:25:55.257Z,23.81
2022-08-30T16:28:50.881Z,23.98
2022-08-30T16:31:37.978Z,24.02
2022-08-30T16:34:25.246Z,24.05
2022-08-30T16:37:12.963Z,24.14
2022-08-30T16:40:00.476Z,23.87
2022-08-30T16:42:48.385Z,23.77
2022-08-30T16:45:39.751Z,23.67
2022-08-30T16:48:27.187Z,23.59
2022-08-30T16:51:17.533Z,23.59
2022-08-30T16:54:07.695Z,23.44
2022-08-30T16:56:55.697Z,23.49
2022-08-30T16:59:44.475Z,23.56
2022-08-30T17:02:31.629Z,23.59
2022-08-30T17:05:18.925Z,23.85
2022-08-30T17:08:05.959Z,24.22
2022-08-30T17:10:52.985Z,24.23
2022-08-30T17:13:40.322Z,24.32
2022-08-30T17:16:28.087Z,24.53
2022-08-30T17:19:15.627Z,24.30
2022-08-30T17:22:14.076Z,24.79
2022-08-30T17:25:01.353Z,24.94
2022-08-30T17:27:48.476Z,24.94
2022-08-30T17:30:36.250Z,25.00
2022-08-30T17:33:24.417Z,25.19
2022-08-30T17:36:11.832Z,24.81
2022-08-30T17:38:58.837Z,24.88
2022-08-30T17:41:50.184Z,24.90
2022-08-30T17:44:38.120Z,25.03
2022-08-30T17:47:29.395Z,25.13
2022-08-30T17:50:23.170Z,25.10
2022-08-30T17:53:10.132Z,25.06
2022-08-30T17:55:57.178Z,24.78
2022-08-30T17:58:47.203Z,24.71
2022-08-30T18:01:34.800Z,24.34
2022-08-30T18:04:24.728Z,24.10
2022-08-30T18:07:13.376Z,23.86
2022-08-30T18:10:00.416Z,23.79
2022-08-30T18:12:48.184Z,23.55
2022-08-30T18:15:36.700Z,23.48
2022-08-30T18:18:25.544Z,23.36
2022-08-30T18:21:16.266Z,23.12
2022-08-30T18:24:04.870Z,23.16
2022-08-30T18:26:54.806Z,23.08
2022-08-30T18:29:42.114Z,23.08
2022-08-30T18:32:32.897Z,23.02
2022-08-30T18:35:23.229Z,23.01
2022-08-30T18:38:10.620Z,22.92
2022-08-30T18:41:00.166Z,22.84
2022-08-30T18:43:48.355Z,22.81
2022-08-30T18:46:35.407Z,22.86
2022-08-30T18:49:22.668Z,22.86
2022-08-30T18:52:11.226Z,22.71
2022-08-30T18:54:58.244Z,22.69
2022-08-30T18:57:45.888Z,22.77
2022-08-30T19:00:33.750Z,22.86
2022-08-30T19:03:21.688Z,22.85
2022-08-30T19:06:11.697Z,22.64
2022-08-30T19:08:58.714Z,22.74
2022-08-30T19:11:46.827Z,22.77
2022-08-30T19:14:33.869Z,22.69
2022-08-30T19:17:21.440Z,22.83
2022-08-30T19:20:10.043Z,22.97
2022-08-30T19:23:09.622Z,22.88
2022-08-30T19:25:57.279Z,22.91
2022-08-30T19:28:45.050Z,22.77
2022-08-30T19:31:32.819Z,22.79
2022-08-30T19:34:19.874Z,22.73
2022-08-30T19:37:09.206Z,22.84
2022-08-30T19:40:07.252Z,22.85
2022-08-30T19:42:54.849Z,22.96
2022-08-30T19:45:41.886Z,22.90
2022-08-30T19:48:32.689Z,22.73
2022-08-30T19:51:20.802Z,22.85
2022-08-30T19:54:08.887Z,22.45
2022-08-30T19:56:55.908Z,22.48
2022-08-30T19:59:42.962Z,22.45
2022-08-30T20:02:30.093Z,22.49
2022-08-30T20:05:17.210Z,22.49
2022-08-30T20:08:04.192Z,22.56
2022-08-30T20:10:51.797Z,22.59
2022-08-30T20:13:39.215Z,22.58
2022-08-30T20:16:33.037Z,22.52
2022-08-30T20:19:29.200Z,22.56
2022-08-30T20:22:16.566Z,22.52
2022-08-30T20:25:05.627Z,22.60
2022-08-30T20:27:59.442Z,22.48
2022-08-30T20:30:46.937Z,22.40
2022-08-30T20:33:37.589Z,22.42
2022-08-30T20:36:24.630Z,22.44
2022-08-30T20:39:14.459Z,22.42
2022-08-30T20:42:05.324Z,22.46
2022-08-30T20:44:53.151Z,22.53
2022-08-30T20:47:41.570Z,22.46
2022-08-30T20:50:28.621Z,22.66
2022-08-30T20:53:16.072Z,22.74
2022-08-30T20:56:03.608Z,22.67
2022-08-30T20:58:50.694Z,22.80
2022-08-30T21:01:38.956Z,22.80
2022-08-30T21:04:27.933Z,22.60
2022-08-30T21:07:15.132Z,22.58
2022-08-30T21:10:02.399Z,22.69
2022-08-30T21:12:49.721Z,22.78
2022-08-30T21:15:37.981Z,22.66
2022-08-30T21:18:29.697Z,22.61
2022-08-30T21:21:22.821Z,22.53
2022-08-30T21:24:10.476Z,22.61
2022-08-30T21:26:58.661Z,22.65
2022-08-30T21:29:45.742Z,22.60
2022-08-30T21:32:32.768Z,22.49
2022-08-30T21:35:38.348Z,22.40
2022-08-30T21:38:26.588Z,22.51
2022-08-30T21:41:13.666Z,22.48
2022-08-30T21:44:03.983Z,22.36
2022-08-30T21:46:52.527Z,22.18
2022-08-30T21:49:39.918Z,22.04
2022-08-30T21:52:26.903Z,22.08
2022-08-30T21:55:14.089Z,22.04
2022-08-30T21:58:01.303Z,21.99
2022-08-30T22:00:50.650Z,21.97
2022-08-30T22:03:37.951Z,22.08
2022-08-30T22:06:30.627Z,22.12
2022-08-30T22:09:21.408Z,22.13
2022-08-30T22:12:08.570Z,22.15
2022-08-30T22:14:55.513Z,22.11
2022-08-30T22:17:42.565Z,22.15
2022-08-30T22:20:30.539Z,22.23
2022-08-30T22:23:19.123Z,22.16
2022-08-30T22:26:09.131Z,22.22
2022-08-30T22:28:56.257Z,22.21
2022-08-30T22:31:43.550Z,22.34
2022-08-30T22:34:32.115Z,22.26
2022-08-30T22:37:19.169Z,21.91
2022-08-30T22:40:06.589Z,22.17
2022-08-30T22:42:53.607Z,22.22
2022-08-30T22:45:41.143Z,22.20
2022-08-30T22:48:28.127Z,21.99
2022-08-30T22:51:17.480Z,22.02
2022-08-30T22:54:06.356Z,21.86
2022-08-30T22:56:53.439Z,21.94
2022-08-30T22:59:40.833Z,21.89
2022-08-30T23:02:27.843Z,21.90
2022-08-30T23:05:16.531Z,21.93
2022-08-30T23:08:05.272Z,21.58
2022-08-30T23:10:52.669Z,21.59
2022-08-30T23:13:40.351Z,21.72
2022-08-30T23:16:27.315Z,21.90
2022-08-30T23:19:15.220Z,21.98
2022-08-30T23:22:02.140Z,22.05
2022-08-30T23:25:07.664Z,21.97
2022-08-30T23:28:21.989Z,21.91
2022-08-30T23:31:33.417Z,22.09
2022-08-30T23:34:39.019Z,21.98
2022-08-30T23:37:44.603Z,22.17
2022-08-30T23:40:52.474Z,22.22
2022-08-30T23:43:57.991Z,22.21
2022-08-30T23:47:03.631Z,22.13
2022-08-30T23:50:09.823Z,22.07
2022-08-30T23:53:15.318Z,22.12
2022-08-30T23:56:20.999Z,21.80
2022-08-30T23:59:26.418Z,21.91
